createdAt,value
2018-11-14T00:01:38.188Z,11.80
2018-11-14T00:04:05.822Z,8.77
2018-11-14T00:06:33.425Z,4.40
2018-11-14T00:09:01.030Z,7.90
2018-11-14T00:11:28.601Z,3.97
2018-11-14T00:13:56.278Z,5.60
2018-11-14T00:16:23.871Z,3.77
2018-11-14T00:18:51.485Z,3.95
2018-11-14T00:21:19.141Z,2.60
2018-11-14T00:23:46.815Z,6.53
2018-11-14T00:26:14.661Z,9.70
2018-11-14T00:28:42.336Z,5.10
2018-11-14T00:31:09.987Z,2.65
2018-11-14T00:33:37.590Z,7.43
2018-11-14T00:36:05.400Z,6.93
2018-11-14T00:38:32.988Z,2.60
2018-11-14T00:41:00.694Z,3.37
2018-11-14T00:43:28.382Z,6.40
2018-11-14T00:45:55.974Z,6.53
2018-11-14T00:48:23.594Z,5.90
2018-11-14T00:50:51.235Z,2.70
2018-11-14T00:53:18.840Z,2.57
2018-11-14T00:55:46.454Z,4.65
2018-11-14T00:58:14.100Z,8.43
2018-11-14T01:00:41.800Z,8.20
2018-11-14T01:03:09.444Z,5.03
2018-11-14T01:05:37.103Z,3.55
2018-11-14T01:08:04.894Z,4.80
2018-11-14T01:10:32.544Z,7.97
2018-11-14T01:13:00.264Z,5.67
2018-11-14T01:15:27.906Z,4.77
2018-11-14T01:17:55.678Z,3.93
2018-11-14T01:20:23.420Z,3.70
2018-11-14T01:22:51.077Z,4.20
2018-11-14T01:25:19.265Z,9.00
2018-11-14T01:27:47.057Z,5.73
2018-11-14T01:30:18.160Z,7.47
2018-11-14T01:32:46.492Z,3.30
2018-11-14T01:35:14.750Z,6.37
2018-11-14T01:37:42.341Z,7.93
2018-11-14T01:40:18.359Z,7.10
2018-11-14T01:42:47.295Z,4.00
2018-11-14T01:45:14.961Z,11.60
2018-11-14T01:47:42.585Z,6.58
2018-11-14T01:50:10.551Z,4.37
2018-11-14T01:52:38.681Z,5.25
2018-11-14T01:55:09.670Z,4.22
2018-11-14T01:57:37.272Z,3.97
2018-11-14T02:00:09.729Z,5.47
2018-11-14T02:02:37.350Z,4.37
2018-11-14T02:05:06.983Z,5.87
2018-11-14T02:07:35.222Z,5.17
2018-11-14T02:10:03.602Z,6.83
2018-11-14T02:12:31.302Z,4.70
2018-11-14T02:14:58.942Z,9.35
2018-11-14T02:17:26.522Z,5.83
2018-11-14T02:19:54.186Z,4.60
2018-11-14T02:22:21.876Z,19.40
2018-11-14T02:24:49.464Z,8.10
2018-11-14T02:27:17.121Z,4.13
2018-11-14T02:29:44.722Z,8.30
2018-11-14T02:32:12.422Z,6.43
2018-11-14T02:34:40.058Z,7.83
2018-11-14T02:37:07.759Z,7.13
2018-11-14T02:39:35.443Z,11.15
2018-11-14T02:42:03.105Z,10.60
2018-11-14T02:44:30.674Z,6.73
2018-11-14T02:46:58.315Z,7.60
2018-11-14T02:49:25.989Z,4.95
2018-11-14T02:51:53.612Z,5.40
2018-11-14T02:54:21.323Z,4.00
2018-11-14T02:56:48.935Z,8.43
2018-11-14T02:59:16.565Z,8.50
2018-11-14T03:01:44.184Z,7.53
2018-11-14T03:04:11.825Z,6.97
2018-11-14T03:06:39.444Z,8.38
2018-11-14T03:09:08.151Z,7.50
2018-11-14T03:11:35.737Z,10.53
2018-11-14T03:14:03.597Z,14.33
2018-11-14T03:16:31.237Z,5.30
2018-11-14T03:18:58.867Z,7.00
2018-11-14T03:21:26.526Z,12.77
2018-11-14T03:23:54.180Z,6.43
2018-11-14T03:26:21.807Z,8.55
2018-11-14T03:28:49.473Z,9.23
2018-11-14T03:31:17.135Z,2.50
2018-11-14T03:33:44.882Z,7.67
2018-11-14T03:36:16.063Z,9.98
2018-11-14T03:38:43.888Z,6.23
2018-11-14T03:41:11.443Z,9.43
2018-11-14T03:43:39.176Z,4.55
2018-11-14T03:46:06.823Z,6.97
2018-11-14T03:48:34.530Z,4.83
2018-11-14T03:51:02.216Z,8.37
2018-11-14T03:53:29.847Z,6.55
2018-11-14T03:55:57.473Z,7.50
2018-11-14T03:58:25.259Z,12.37
2018-11-14T04:00:52.742Z,8.47
2018-11-14T04:03:20.459Z,6.30
2018-11-14T04:05:48.197Z,4.83
2018-11-14T04:08:15.882Z,7.03
2018-11-14T04:10:43.476Z,8.35
2018-11-14T04:13:11.174Z,6.80
2018-11-14T04:15:38.841Z,6.70
2018-11-14T04:18:06.494Z,5.07
2018-11-14T04:20:34.205Z,6.22
2018-11-14T04:23:01.830Z,4.67
2018-11-14T04:25:29.406Z,8.27
2018-11-14T04:27:56.982Z,3.98
2018-11-14T04:30:24.674Z,8.77
2018-11-14T04:32:52.401Z,16.70
2018-11-14T04:35:20.797Z,7.58
2018-11-14T04:37:48.622Z,4.20
2018-11-14T04:40:19.187Z,7.23
2018-11-14T04:42:46.857Z,12.30
2018-11-14T04:45:16.007Z,4.87
2018-11-14T04:47:43.790Z,4.27
2018-11-14T04:50:14.991Z,4.27
2018-11-14T04:52:43.322Z,9.07
2018-11-14T04:55:12.504Z,6.13
2018-11-14T04:57:40.700Z,6.93
2018-11-14T05:00:10.074Z,4.47
2018-11-14T05:02:38.090Z,7.27
2018-11-14T05:05:08.317Z,3.37
2018-11-14T05:07:36.083Z,3.60
2018-11-14T05:10:05.241Z,10.20
2018-11-14T05:12:32.952Z,5.03
2018-11-14T05:15:00.551Z,7.12
2018-11-14T05:17:28.136Z,3.40
2018-11-14T05:19:55.756Z,4.93
2018-11-14T05:22:23.394Z,6.73
2018-11-14T05:24:51.165Z,9.13
2018-11-14T05:27:18.777Z,5.72
2018-11-14T05:29:46.473Z,7.30
2018-11-14T05:32:14.213Z,6.57
2018-11-14T05:34:42.033Z,10.27
2018-11-14T05:37:09.651Z,8.43
2018-11-14T05:39:37.377Z,5.17
2018-11-14T05:42:04.988Z,8.73
2018-11-14T05:44:32.640Z,5.08
2018-11-14T05:47:00.390Z,10.20
2018-11-14T05:49:27.998Z,3.50
2018-11-14T05:51:55.646Z,4.62
2018-11-14T05:54:23.354Z,6.97
2018-11-14T05:56:51.045Z,5.77
2018-11-14T05:59:18.865Z,12.73
2018-11-14T06:01:46.580Z,8.83
2018-11-14T06:04:14.297Z,5.30
2018-11-14T06:06:41.926Z,7.53
2018-11-14T06:09:11.622Z,8.50
2018-11-14T06:11:39.235Z,2.70
2018-11-14T06:14:06.976Z,7.35
2018-11-14T06:16:34.810Z,5.03
2018-11-14T06:19:02.506Z,7.57
2018-11-14T06:21:30.162Z,8.30
2018-11-14T06:23:57.814Z,5.47
2018-11-14T06:26:25.502Z,11.00
2018-11-14T06:28:53.137Z,9.00
2018-11-14T06:31:20.766Z,11.40
2018-11-14T06:33:48.381Z,10.60
2018-11-14T06:36:16.040Z,7.62
2018-11-14T06:38:43.674Z,8.73
2018-11-14T06:41:11.367Z,7.20
2018-11-14T06:43:39.013Z,6.00
2018-11-14T06:46:06.744Z,9.53
2018-11-14T06:48:34.417Z,11.30
2018-11-14T06:51:02.063Z,7.60
2018-11-14T06:53:29.765Z,4.15
2018-11-14T06:55:57.499Z,5.70
2018-11-14T06:58:25.127Z,13.13
2018-11-14T07:00:52.949Z,5.77
2018-11-14T07:03:20.694Z,5.57
2018-11-14T07:05:48.391Z,7.12
2018-11-14T07:08:16.029Z,8.17
2018-11-14T07:10:43.711Z,7.73
2018-11-14T07:13:12.363Z,7.15
2018-11-14T07:15:40.614Z,3.63
2018-11-14T07:18:09.331Z,10.03
2018-11-14T07:20:38.527Z,7.03
2018-11-14T07:23:06.549Z,6.87
2018-11-14T07:25:34.427Z,10.37
2018-11-14T07:28:02.113Z,10.70
2018-11-14T07:30:30.371Z,9.90
2018-11-14T07:33:01.122Z,8.10
2018-11-14T07:35:28.720Z,11.00
2018-11-14T07:38:39.235Z,9.43
2018-11-14T07:41:09.418Z,8.13
2018-11-14T07:43:37.649Z,14.40
2018-11-14T07:46:05.872Z,6.20
2018-11-14T07:48:33.808Z,7.60
2018-11-14T07:51:01.658Z,9.23
2018-11-14T07:53:29.322Z,4.50
2018-11-14T07:55:57.150Z,6.78
2018-11-14T07:58:24.782Z,20.57
2018-11-14T08:00:52.916Z,7.07
2018-11-14T08:03:20.540Z,6.90
2018-11-14T08:05:48.181Z,8.97
2018-11-14T08:08:15.920Z,10.13
2018-11-14T08:10:43.473Z,5.55
2018-11-14T08:13:11.150Z,7.35
2018-11-14T08:15:38.874Z,6.43
2018-11-14T08:18:06.648Z,6.60
2018-11-14T08:20:34.364Z,5.23
2018-11-14T08:23:02.018Z,9.03
2018-11-14T08:25:29.786Z,8.60
2018-11-14T08:27:57.376Z,5.70
2018-11-14T08:30:24.973Z,5.78
2018-11-14T08:32:52.633Z,10.93
2018-11-14T08:35:20.221Z,8.03
2018-11-14T08:37:47.841Z,7.05
2018-11-14T08:40:15.403Z,11.60
2018-11-14T08:42:43.071Z,6.50
2018-11-14T08:45:11.399Z,8.27
2018-11-14T08:47:39.764Z,8.10
2018-11-14T08:50:11.054Z,3.30
2018-11-14T08:52:39.253Z,8.03
2018-11-14T08:55:07.560Z,5.93
2018-11-14T08:57:35.513Z,7.43
2018-11-14T09:00:04.175Z,10.60
2018-11-14T09:02:31.774Z,11.43
2018-11-14T09:04:59.422Z,6.25
2018-11-14T09:07:27.109Z,9.10
2018-11-14T09:09:54.739Z,7.67
2018-11-14T09:12:22.345Z,3.63
2018-11-14T09:14:50.054Z,10.98
2018-11-14T09:17:17.707Z,9.23
2018-11-14T09:19:45.305Z,6.47
2018-11-14T09:22:12.993Z,6.07
2018-11-14T09:24:40.595Z,5.80
2018-11-14T09:27:08.295Z,8.63
2018-11-14T09:29:35.900Z,11.63
2018-11-14T09:32:03.803Z,10.90
2018-11-14T09:34:31.593Z,10.38
2018-11-14T09:36:59.197Z,9.20
2018-11-14T09:39:26.854Z,11.17
2018-11-14T09:41:54.476Z,7.20
2018-11-14T09:44:22.135Z,8.93
2018-11-14T09:46:49.764Z,6.10
2018-11-14T09:49:17.548Z,3.87
2018-11-14T09:51:45.198Z,7.80
2018-11-14T09:54:12.831Z,8.50
2018-11-14T09:56:40.427Z,7.00
2018-11-14T09:59:08.051Z,7.25
2018-11-14T10:01:35.646Z,6.17
2018-11-14T10:04:03.478Z,8.67
2018-11-14T10:06:31.132Z,6.23
2018-11-14T10:08:58.892Z,10.95
2018-11-14T10:11:26.484Z,10.82
2018-11-14T10:13:54.124Z,5.80
2018-11-14T10:16:21.738Z,6.40
2018-11-14T10:18:49.333Z,13.65
2018-11-14T10:21:17.014Z,5.97
2018-11-14T10:23:44.587Z,10.43
2018-11-14T10:26:12.285Z,7.03
2018-11-14T10:28:39.919Z,6.63
2018-11-14T10:31:07.578Z,7.03
2018-11-14T10:33:35.217Z,16.20
2018-11-14T10:36:02.829Z,6.37
2018-11-14T10:38:30.491Z,13.70
2018-11-14T10:40:58.125Z,6.80
2018-11-14T10:43:25.720Z,9.35
2018-11-14T10:45:53.355Z,8.73
2018-11-14T10:48:21.026Z,7.25
2018-11-14T10:50:48.630Z,18.05
2018-11-14T10:53:16.236Z,4.73
2018-11-14T10:55:43.863Z,9.03
2018-11-14T10:58:11.534Z,8.95
2018-11-14T11:00:45.014Z,9.60
2018-11-14T11:03:18.525Z,12.20
2018-11-14T11:06:02.994Z,13.53
2018-11-14T11:08:36.603Z,8.60
2018-11-14T11:11:10.441Z,12.13
2018-11-14T11:14:13.113Z,9.37
2018-11-14T11:16:47.854Z,8.43
2018-11-14T11:19:20.046Z,9.00
2018-11-14T11:21:47.730Z,10.47
2018-11-14T11:24:16.575Z,5.90
2018-11-14T11:26:44.245Z,5.13
2018-11-14T11:29:11.903Z,7.92
2018-11-14T11:31:39.563Z,11.15
2018-11-14T11:34:08.144Z,6.40
2018-11-14T11:36:35.874Z,4.93
2018-11-14T11:39:07.565Z,11.70
2018-11-14T11:41:35.304Z,12.50
2018-11-14T11:44:02.959Z,6.10
2018-11-14T11:46:30.643Z,8.05
2018-11-14T11:48:58.314Z,7.80
2018-11-14T11:51:25.969Z,9.23
2018-11-14T11:53:53.682Z,13.43
2018-11-14T11:56:21.361Z,6.95
2018-11-14T11:58:48.974Z,10.25
2018-11-14T12:01:16.626Z,10.83
2018-11-14T12:03:44.242Z,12.73
2018-11-14T12:06:11.939Z,11.03
2018-11-14T12:08:39.488Z,5.50
2018-11-14T12:11:07.133Z,12.45
2018-11-14T12:13:34.825Z,11.53
2018-11-14T12:16:02.463Z,8.43
2018-11-14T12:18:30.086Z,9.23
2018-11-14T12:20:57.634Z,8.75
2018-11-14T12:23:25.269Z,8.30
2018-11-14T12:25:52.894Z,8.17
2018-11-14T12:28:20.519Z,9.47
2018-11-14T12:30:48.367Z,9.73
2018-11-14T12:33:15.753Z,7.80
2018-11-14T12:35:43.450Z,6.45
2018-11-14T12:38:11.049Z,8.50
2018-11-14T12:40:38.631Z,9.23
2018-11-14T12:43:06.908Z,8.33
2018-11-14T12:45:34.555Z,6.27
2018-11-14T12:48:02.246Z,6.70
2018-11-14T12:50:29.969Z,5.33
2018-11-14T12:52:57.585Z,5.72
2018-11-14T12:55:25.224Z,8.10
2018-11-14T12:57:52.854Z,11.03
2018-11-14T13:00:20.957Z,4.67
2018-11-14T13:02:48.632Z,6.30
2018-11-14T13:05:16.589Z,6.80
2018-11-14T13:07:44.656Z,5.07
2018-11-14T13:10:13.575Z,6.60
2018-11-14T13:12:41.589Z,8.27
2018-11-14T13:15:10.643Z,8.60
2018-11-14T13:17:38.483Z,3.13
2018-11-14T13:20:09.369Z,9.40
2018-11-14T13:22:36.991Z,4.50
2018-11-14T13:25:06.737Z,7.05
2018-11-14T13:27:34.329Z,7.43
2018-11-14T13:30:01.905Z,8.18
2018-11-14T13:32:29.513Z,4.50
2018-11-14T13:34:57.501Z,6.27
2018-11-14T13:37:25.035Z,5.57
2018-11-14T13:39:52.633Z,6.60
2018-11-14T13:42:20.282Z,5.50
2018-11-14T13:44:48.159Z,4.77
2018-11-14T13:47:15.844Z,12.43
2018-11-14T13:49:43.744Z,11.60
2018-11-14T13:52:11.222Z,2.53
2018-11-14T13:54:38.843Z,5.08
2018-11-14T13:57:06.537Z,5.47
2018-11-14T13:59:34.189Z,5.27
2018-11-14T14:02:01.840Z,5.90
2018-11-14T14:04:29.511Z,5.90
2018-11-14T14:06:57.089Z,12.20
2018-11-14T14:09:24.820Z,7.92
2018-11-14T14:11:52.388Z,11.45
2018-11-14T14:14:20.169Z,5.13
2018-11-14T14:16:48.775Z,5.10
2018-11-14T14:19:16.796Z,10.03
2018-11-14T14:21:44.485Z,13.93
2018-11-14T14:24:12.253Z,14.43
2018-11-14T14:26:40.121Z,8.90
2018-11-14T14:29:08.431Z,11.08
2018-11-14T14:31:36.429Z,6.43
2018-11-14T14:34:04.535Z,16.60
2018-11-14T14:36:32.135Z,16.60
2018-11-14T14:38:59.854Z,6.00
2018-11-14T14:41:27.495Z,8.83
2018-11-14T14:43:55.156Z,7.95
2018-11-14T15:58:24.679Z,14.23
2018-11-14T16:00:52.344Z,18.17
2018-11-14T16:03:20.754Z,14.18
2018-11-14T16:05:48.446Z,13.53
2018-11-14T16:08:16.211Z,16.00
2018-11-14T16:10:44.620Z,20.37
2018-11-14T16:13:12.484Z,14.13
2018-11-14T16:15:40.109Z,15.20
2018-11-14T16:18:07.839Z,12.03
2018-11-14T16:20:36.234Z,16.20
2018-11-14T16:23:03.978Z,11.63
2018-11-14T16:25:32.459Z,13.85
2018-11-14T16:28:01.573Z,8.87
2018-11-14T16:30:30.786Z,16.83
2018-11-14T16:33:01.083Z,24.80
2018-11-14T16:35:29.141Z,17.87
2018-11-14T16:40:39.980Z,9.13
2018-11-14T16:43:08.727Z,21.37
2018-11-14T16:45:37.035Z,12.23
2018-11-14T16:48:04.752Z,18.67
2018-11-14T16:50:33.865Z,10.90
2018-11-14T16:53:04.160Z,17.23
2018-11-14T16:55:31.977Z,20.03
2018-11-14T16:57:59.691Z,10.63
2018-11-14T17:00:28.625Z,19.40
2018-11-14T17:02:57.402Z,11.33
2018-11-14T17:05:27.401Z,17.53
2018-11-14T17:07:55.432Z,20.97
2018-11-14T17:10:24.447Z,18.40
2018-11-14T17:12:53.616Z,21.43
2018-11-14T17:15:23.139Z,19.50
2018-11-14T17:17:50.999Z,15.63
2018-11-14T17:20:19.533Z,15.20
2018-11-14T17:22:48.037Z,20.33
2018-11-14T17:25:16.437Z,22.67
2018-11-14T17:27:45.527Z,20.50
2018-11-14T17:30:16.406Z,17.67
2018-11-14T17:32:44.821Z,19.63
2018-11-14T17:35:13.533Z,20.90
2018-11-14T17:37:42.208Z,26.23
2018-11-14T17:40:13.904Z,30.87
2018-11-14T17:42:43.181Z,17.53
2018-11-14T17:45:14.125Z,18.10
2018-11-14T17:47:42.041Z,18.93
2018-11-14T17:50:17.163Z,16.47
2018-11-14T17:52:46.023Z,20.90
2018-11-14T17:55:17.313Z,27.80
2018-11-14T17:57:45.004Z,27.70
2018-11-14T18:00:15.489Z,28.60
2018-11-14T18:02:43.708Z,30.37
2018-11-14T18:05:12.897Z,29.10
2018-11-14T18:07:41.141Z,27.47
2018-11-14T18:10:11.820Z,22.27
2018-11-14T18:12:40.712Z,21.93
2018-11-14T18:15:09.561Z,28.30
2018-11-14T18:17:38.088Z,27.53
2018-11-14T18:20:09.478Z,22.43
2018-11-14T18:22:38.564Z,20.77
2018-11-14T18:25:06.841Z,28.83
2018-11-14T18:27:36.169Z,22.60
2018-11-14T18:30:08.751Z,20.20
2018-11-14T18:32:37.317Z,27.13
2018-11-14T18:35:09.304Z,31.23
2018-11-14T18:37:38.018Z,20.90
2018-11-14T18:40:09.679Z,24.10
2018-11-14T18:42:38.205Z,24.50
2018-11-14T18:45:11.014Z,28.03
2018-11-14T18:47:39.200Z,18.93
2018-11-14T18:50:09.169Z,18.07
2018-11-14T18:52:37.222Z,20.73
2018-11-14T18:55:08.183Z,24.53
2018-11-14T18:57:36.155Z,24.60
2018-11-14T19:00:07.341Z,21.60
2018-11-14T19:02:35.207Z,18.43
2018-11-14T19:05:03.273Z,21.33
2018-11-14T19:07:31.975Z,40.37
2018-11-14T19:09:59.826Z,22.80
2018-11-14T19:12:27.700Z,26.13
2018-11-14T19:14:55.584Z,28.77
2018-11-14T19:17:23.977Z,14.77
2018-11-14T19:19:51.726Z,21.57
2018-11-14T19:22:20.035Z,24.23
2018-11-14T19:24:49.094Z,22.57
2018-11-14T19:27:17.414Z,27.67
2018-11-14T19:29:45.423Z,20.67
2018-11-14T19:32:13.273Z,22.87
2018-11-14T19:34:41.057Z,27.00
2018-11-14T19:37:10.283Z,28.90
2018-11-14T19:39:38.237Z,27.00
2018-11-14T19:42:06.781Z,27.63
2018-11-14T19:44:34.900Z,22.70
2018-11-14T19:47:02.849Z,21.53
2018-11-14T19:49:30.881Z,19.53
2018-11-14T19:51:58.940Z,21.33
2018-11-14T19:54:26.704Z,37.03
2018-11-14T19:56:54.652Z,19.90
2018-11-14T19:59:22.745Z,23.60
2018-11-14T20:01:50.775Z,27.23
2018-11-14T20:04:18.608Z,20.30
2018-11-14T20:06:46.733Z,19.93
2018-11-14T20:09:14.893Z,25.03
2018-11-14T20:11:43.397Z,27.97
2018-11-14T20:14:11.139Z,18.80
2018-11-14T20:16:39.649Z,26.40
2018-11-14T20:19:08.005Z,25.37
2018-11-14T20:21:36.608Z,31.43
2018-11-14T20:24:06.763Z,21.90
2018-11-14T20:26:34.519Z,24.07
2018-11-14T20:29:02.556Z,24.43
2018-11-14T20:31:30.634Z,21.33
2018-11-14T20:34:00.299Z,22.93
2018-11-14T20:36:28.156Z,23.67
2018-11-14T20:38:55.965Z,19.10
2018-11-14T20:41:23.882Z,21.67
2018-11-14T20:43:51.632Z,18.07
2018-11-14T20:46:19.486Z,22.07
2018-11-14T20:48:47.237Z,25.35
2018-11-14T20:51:14.912Z,20.08
2018-11-14T20:53:42.879Z,23.67
2018-11-14T20:56:11.070Z,18.32
2018-11-14T20:58:38.918Z,17.20
2018-11-14T21:01:06.830Z,15.88
2018-11-14T21:03:36.228Z,16.80
2018-11-14T21:06:04.089Z,15.73
2018-11-14T21:08:31.900Z,19.60
2018-11-14T21:10:59.687Z,17.70
2018-11-14T21:13:27.477Z,26.48
2018-11-14T21:15:55.291Z,17.92
2018-11-14T21:18:23.080Z,21.52
2018-11-14T21:20:51.447Z,17.57
2018-11-14T21:23:21.548Z,26.77
2018-11-14T21:25:49.351Z,32.53
2018-11-14T21:28:17.079Z,33.87
2018-11-14T21:30:44.884Z,32.58
2018-11-14T21:33:12.919Z,38.02
2018-11-14T21:35:40.607Z,33.10
2018-11-14T21:38:08.937Z,22.70
2018-11-14T21:40:36.727Z,22.10
2018-11-14T21:43:05.688Z,21.37
2018-11-14T21:45:33.532Z,19.33
2018-11-14T21:48:07.342Z,21.33
2018-11-14T21:50:35.490Z,21.53
2018-11-14T21:53:03.223Z,32.27
2018-11-14T21:55:30.920Z,25.60
2018-11-14T21:57:58.900Z,21.45
2018-11-14T22:00:30.501Z,23.18
2018-11-14T22:02:58.588Z,28.50
2018-11-14T22:05:26.274Z,30.50
2018-11-14T22:07:54.045Z,28.43
2018-11-14T22:10:22.829Z,25.35
2018-11-14T22:12:51.387Z,27.83
2018-11-14T22:15:20.288Z,27.13
2018-11-14T22:17:48.666Z,27.10
2018-11-14T22:20:18.203Z,18.27
2018-11-14T22:22:46.577Z,23.40
2018-11-14T22:25:15.625Z,25.17
2018-11-14T22:27:43.618Z,27.60
2018-11-14T22:30:14.689Z,24.63
2018-11-14T22:32:42.674Z,26.17
2018-11-14T22:35:12.849Z,23.27
2018-11-14T22:37:40.739Z,25.73
2018-11-14T22:40:11.466Z,34.03
2018-11-14T22:42:39.188Z,30.73
2018-11-14T22:45:09.976Z,22.80
2018-11-14T22:47:38.371Z,20.93
2018-11-14T22:50:07.866Z,16.07
2018-11-14T22:52:35.853Z,20.53
2018-11-14T22:55:04.788Z,22.23
2018-11-14T22:57:32.532Z,21.23
2018-11-14T23:00:01.013Z,27.80
2018-11-14T23:02:29.200Z,24.30
2018-11-14T23:04:56.965Z,17.30
2018-11-14T23:07:24.659Z,22.32
2018-11-14T23:09:52.393Z,21.65
2018-11-14T23:12:20.624Z,24.87
2018-11-14T23:14:48.475Z,18.77
2018-11-14T23:17:16.318Z,17.73
2018-11-14T23:19:44.027Z,17.20
2018-11-14T23:22:11.729Z,18.62
2018-11-14T23:24:39.553Z,23.47
2018-11-14T23:27:08.358Z,25.90
2018-11-14T23:29:36.062Z,23.73
2018-11-14T23:32:04.369Z,16.40
2018-11-14T23:34:32.212Z,16.70
2018-11-14T23:36:59.940Z,25.97
2018-11-14T23:39:27.680Z,22.67
2018-11-14T23:41:55.404Z,16.45
2018-11-14T23:44:23.537Z,13.30
2018-11-14T23:46:51.320Z,15.80
2018-11-14T23:49:19.209Z,19.40
2018-11-14T23:51:46.872Z,16.12
2018-11-14T23:54:14.652Z,26.50
2018-11-14T23:56:42.683Z,21.93
2018-11-14T23:59:10.375Z,17.23
